sensor_id;sensor_type;location;lat;lon;timestamp;temperature;humidity
26757;DHT22;23848;49.798;10.228;2024-02-26T10:22:33;9.90;99.90
26757;DHT22;23848;49.798;10.228;2024-02-26T10:25:11;9.80;99.90
26757;DHT22;23848;49.798;10.228;2024-02-26T10:27:46;9.80;99.90
26757;DHT22;23848;49.798;10.228;2024-02-26T10:30:44;9.80;99.90
26757;DHT22;23848;49.798;10.228;2024-02-26T10:33:19;9.90;99.90
26757;DHT22;23848;49.798;10.228;2024-02-26T10:36:13;10.10;99.90
26757;DHT22;23848;49.798;10.228;2024-02-26T10:38:50;10.30;99.90
26757;DHT22;23848;49.798;10.228;2024-02-26T10:41:33;10.40;99.90
26757;DHT22;23848;49.798;10.228;2024-02-26T10:44:18;10.40;99.90
26757;DHT22;23848;49.798;10.228;2024-02-26T10:52:43;10.70;99.90
26757;DHT22;23848;49.798;10.228;2024-02-26T10:55:22;10.70;99.90
26757;DHT22;23848;49.798;10.228;2024-02-26T10:58:26;10.80;99.90
26757;DHT22;23848;49.798;10.228;2024-02-26T11:01:07;11.10;99.90
26757;DHT22;23848;49.798;10.228;2024-02-26T11:04:25;11.10;99.90
26757;DHT22;23848;49.798;10.228;2024-02-26T11:07:18;11.00;99.90
26757;DHT22;23848;49.798;10.228;2024-02-26T11:10:21;10.90;99.90
26757;DHT22;23848;49.798;10.228;2024-02-26T11:13:15;10.90;99.90
26757;DHT22;23848;49.798;10.228;2024-02-26T11:16:09;10.90;99.90
26757;DHT22;23848;49.798;10.228;2024-02-26T11:19:16;10.80;99.90
26757;DHT22;23848;49.798;10.228;2024-02-26T11:21:46;11.00;99.90
26757;DHT22;23848;49.798;10.228;2024-02-26T11:24:34;11.10;99.90
26757;DHT22;23848;49.798;10.228;2024-02-26T11:30:59;10.90;99.90
26757;DHT22;23848;49.798;10.228;2024-02-26T11:33:41;11.00;99.90
26757;DHT22;23848;49.798;10.228;2024-02-26T11:36:21;11.10;99.90
26757;DHT22;23848;49.798;10.228;2024-02-26T11:39:00;11.20;99.90
26757;DHT22;23848;49.798;10.228;2024-02-26T11:41:45;11.40;99.90
26757;DHT22;23848;49.798;10.228;2024-02-26T11:44:35;11.50;99.90
26757;DHT22;23848;49.798;10.228;2024-02-26T11:47:28;11.60;99.90
26757;DHT22;23848;49.798;10.228;2024-02-26T11:50:45;11.40;99.90
26757;DHT22;23848;49.798;10.228;2024-02-26T11:56:59;11.80;99.90
26757;DHT22;23848;49.798;10.228;2024-02-26T12:00:21;11.60;99.90
26757;DHT22;23848;49.798;10.228;2024-02-26T12:03:01;11.60;99.90
26757;DHT22;23848;49.798;10.228;2024-02-26T12:05:52;11.50;99.90
26757;DHT22;23848;49.798;10.228;2024-02-26T12:08:25;11.50;99.90
26757;DHT22;23848;49.798;10.228;2024-02-26T12:13:41;11.60;99.90
26757;DHT22;23848;49.798;10.228;2024-02-26T12:19:29;11.80;99.90
26757;DHT22;23848;49.798;10.228;2024-02-26T12:22:30;11.70;99.90
26757;DHT22;23848;49.798;10.228;2024-02-26T12:29:01;11.50;99.90
26757;DHT22;23848;49.798;10.228;2024-02-26T12:32:04;11.50;99.90
26757;DHT22;23848;49.798;10.228;2024-02-26T12:35:10;11.60;99.90
26757;DHT22;23848;49.798;10.228;2024-02-26T12:38:28;11.70;99.90
26757;DHT22;23848;49.798;10.228;2024-02-26T12:59:15;11.70;99.90
26757;DHT22;23848;49.798;10.228;2024-02-26T13:02:24;11.60;99.90
26757;DHT22;23848;49.798;10.228;2024-02-26T13:05:15;11.60;99.90
26757;DHT22;23848;49.798;10.228;2024-02-26T13:21:33;11.70;99.90
26757;DHT22;23848;49.798;10.228;2024-02-26T13:33:06;11.90;99.90
26757;DHT22;23848;49.798;10.228;2024-02-26T13:53:26;11.60;99.90
26757;DHT22;23848;49.798;10.228;2024-02-26T13:56:01;11.60;99.90
26757;DHT22;23848;49.798;10.228;2024-02-26T13:59:00;11.60;99.90
26757;DHT22;23848;49.798;10.228;2024-02-26T14:02:09;11.60;99.90
26757;DHT22;23848;49.798;10.228;2024-02-26T14:34:19;11.60;99.90
26757;DHT22;23848;49.798;10.228;2024-02-26T14:37:05;11.60;99.90
26757;DHT22;23848;49.798;10.228;2024-02-26T14:39:45;11.60;99.90
26757;DHT22;23848;49.798;10.228;2024-02-26T14:42:24;11.60;99.90
26757;DHT22;23848;49.798;10.228;2024-02-26T14:45:09;11.60;99.90
26757;DHT22;23848;49.798;10.228;2024-02-26T14:48:04;11.50;99.90
26757;DHT22;23848;49.798;10.228;2024-02-26T14:53:48;11.50;99.90
26757;DHT22;23848;49.798;10.228;2024-02-26T14:56:36;11.50;99.90
26757;DHT22;23848;49.798;10.228;2024-02-26T14:59:22;11.50;99.90
26757;DHT22;23848;49.798;10.228;2024-02-26T15:01:59;11.50;99.90
26757;DHT22;23848;49.798;10.228;2024-02-26T15:04:37;11.50;99.90
26757;DHT22;23848;49.798;10.228;2024-02-26T15:07:15;11.50;99.90
26757;DHT22;23848;49.798;10.228;2024-02-26T15:10:07;11.50;99.90
26757;DHT22;23848;49.798;10.228;2024-02-26T15:12:46;11.50;99.90
26757;DHT22;23848;49.798;10.228;2024-02-26T15:15:15;11.50;99.90
26757;DHT22;23848;49.798;10.228;2024-02-26T15:17:57;11.50;99.90
26757;DHT22;23848;49.798;10.228;2024-02-26T15:20:44;11.50;99.90
26757;DHT22;23848;49.798;10.228;2024-02-26T15:23:30;11.50;99.90
26757;DHT22;23848;49.798;10.228;2024-02-26T15:26:10;11.40;99.90
26757;DHT22;23848;49.798;10.228;2024-02-26T15:29:02;11.40;99.90
26757;DHT22;23848;49.798;10.228;2024-02-26T15:31:38;11.40;99.90
26757;DHT22;23848;49.798;10.228;2024-02-26T15:34:15;11.40;99.90
26757;DHT22;23848;49.798;10.228;2024-02-26T15:37:20;11.40;99.90
26757;DHT22;23848;49.798;10.228;2024-02-26T15:42:49;11.50;99.90
26757;DHT22;23848;49.798;10.228;2024-02-26T15:48:21;11.50;99.90
26757;DHT22;23848;49.798;10.228;2024-02-26T15:50:59;11.50;99.90
26757;DHT22;23848;49.798;10.228;2024-02-26T15:53:45;11.40;99.90
26757;DHT22;23848;49.798;10.228;2024-02-26T15:56:23;11.40;99.90
26757;DHT22;23848;49.798;10.228;2024-02-26T15:59:31;11.40;99.90
26757;DHT22;23848;49.798;10.228;2024-02-26T16:02:56;11.30;99.90
26757;DHT22;23848;49.798;10.228;2024-02-26T16:06:06;11.30;99.90
26757;DHT22;23848;49.798;10.228;2024-02-26T16:08:47;11.20;99.90
26757;DHT22;23848;49.798;10.228;2024-02-26T16:11:25;11.20;99.90
26757;DHT22;23848;49.798;10.228;2024-02-26T16:14:07;11.20;99.90
26757;DHT22;23848;49.798;10.228;2024-02-26T16:20:03;11.00;99.90
26757;DHT22;23848;49.798;10.228;2024-02-26T16:23:05;11.00;99.90
26757;DHT22;23848;49.798;10.228;2024-02-26T16:25:57;11.00;99.90
26757;DHT22;23848;49.798;10.228;2024-02-26T16:28:43;10.90;99.90
26757;DHT22;23848;49.798;10.228;2024-02-26T16:31:33;10.80;99.90
26757;DHT22;23848;49.798;10.228;2024-02-26T16:44:46;10.80;99.90
26757;DHT22;23848;49.798;10.228;2024-02-26T16:47:18;10.60;99.90
26757;DHT22;23848;49.798;10.228;2024-02-26T16:49:48;10.50;99.90
26757;DHT22;23848;49.798;10.228;2024-02-26T16:52:37;10.50;99.90
26757;DHT22;23848;49.798;10.228;2024-02-26T16:55:10;10.50;99.90
26757;DHT22;23848;49.798;10.228;2024-02-26T16:57:46;10.40;99.90
26757;DHT22;23848;49.798;10.228;2024-02-26T17:00:16;10.30;99.90
26757;DHT22;23848;49.798;10.228;2024-02-26T17:02:55;10.30;99.90
26757;DHT22;23848;49.798;10.228;2024-02-26T17:05:28;10.20;99.90
26757;DHT22;23848;49.798;10.228;2024-02-26T17:08:03;10.20;99.90
26757;DHT22;23848;49.798;10.228;2024-02-26T17:10:35;10.20;99.90
26757;DHT22;23848;49.798;10.228;2024-02-26T17:13:06;10.10;99.90
26757;DHT22;23848;49.798;10.228;2024-02-26T17:15:38;10.10;99.90
26757;DHT22;23848;49.798;10.228;2024-02-26T17:18:16;10.10;99.90
26757;DHT22;23848;49.798;10.228;2024-02-26T17:20:50;10.00;99.90
26757;DHT22;23848;49.798;10.228;2024-02-26T17:23:24;10.00;99.90
26757;DHT22;23848;49.798;10.228;2024-02-26T17:25:53;10.00;99.90
26757;DHT22;23848;49.798;10.228;2024-02-26T17:28:24;9.90;99.90
26757;DHT22;23848;49.798;10.228;2024-02-26T17:30:57;9.90;99.90
26757;DHT22;23848;49.798;10.228;2024-02-26T17:33:30;9.80;99.90
26757;DHT22;23848;49.798;10.228;2024-02-26T17:36:01;9.80;99.90
26757;DHT22;23848;49.798;10.228;2024-02-26T17:38:34;9.70;99.90
26757;DHT22;23848;49.798;10.228;2024-02-26T17:41:07;9.70;99.90
26757;DHT22;23848;49.798;10.228;2024-02-26T17:43:35;9.70;99.90
26757;DHT22;23848;49.798;10.228;2024-02-26T17:46:05;9.70;99.90
26757;DHT22;23848;49.798;10.228;2024-02-26T17:48:34;9.70;99.90
26757;DHT22;23848;49.798;10.228;2024-02-26T17:51:03;9.70;99.90
26757;DHT22;23848;49.798;10.228;2024-02-26T17:53:32;9.70;99.90
26757;DHT22;23848;49.798;10.228;2024-02-26T17:56:01;9.70;99.90
26757;DHT22;23848;49.798;10.228;2024-02-26T17:58:33;9.70;99.90
26757;DHT22;23848;49.798;10.228;2024-02-26T18:01:08;9.60;99.90
26757;DHT22;23848;49.798;10.228;2024-02-26T18:03:36;9.60;99.90
26757;DHT22;23848;49.798;10.228;2024-02-26T18:06:04;9.60;99.90
26757;DHT22;23848;49.798;10.228;2024-02-26T18:08:33;9.60;99.90
26757;DHT22;23848;49.798;10.228;2024-02-26T18:11:01;9.60;99.90
26757;DHT22;23848;49.798;10.228;2024-02-26T18:13:29;9.60;99.90
26757;DHT22;23848;49.798;10.228;2024-02-26T18:15:57;9.50;99.90
26757;DHT22;23848;49.798;10.228;2024-02-26T18:18:26;9.60;99.90
26757;DHT22;23848;49.798;10.228;2024-02-26T18:20:55;9.60;99.90
26757;DHT22;23848;49.798;10.228;2024-02-26T18:23:23;9.60;99.90
26757;DHT22;23848;49.798;10.228;2024-02-26T18:25:51;9.60;99.90
26757;DHT22;23848;49.798;10.228;2024-02-26T18:28:19;9.60;99.90
26757;DHT22;23848;49.798;10.228;2024-02-26T18:30:48;9.60;99.90
26757;DHT22;23848;49.798;10.228;2024-02-26T18:33:19;9.50;99.90
26757;DHT22;23848;49.798;10.228;2024-02-26T18:35:48;9.60;99.90
26757;DHT22;23848;49.798;10.228;2024-02-26T18:38:17;9.50;99.90
26757;DHT22;23848;49.798;10.228;2024-02-26T18:40:45;9.50;99.90
26757;DHT22;23848;49.798;10.228;2024-02-26T18:43:12;9.50;99.90
26757;DHT22;23848;49.798;10.228;2024-02-26T18:45:40;9.50;99.90
26757;DHT22;23848;49.798;10.228;2024-02-26T18:48:09;9.50;99.90
26757;DHT22;23848;49.798;10.228;2024-02-26T18:50:37;9.40;99.90
26757;DHT22;23848;49.798;10.228;2024-02-26T18:53:07;9.40;99.90
26757;DHT22;23848;49.798;10.228;2024-02-26T18:55:36;9.30;99.90
26757;DHT22;23848;49.798;10.228;2024-02-26T18:58:04;9.30;99.90
26757;DHT22;23848;49.798;10.228;2024-02-26T19:00:32;9.30;99.90
26757;DHT22;23848;49.798;10.228;2024-02-26T19:03:00;9.40;99.90
26757;DHT22;23848;49.798;10.228;2024-02-26T19:05:29;9.30;99.90
26757;DHT22;23848;49.798;10.228;2024-02-26T19:07:58;9.30;99.90
26757;DHT22;23848;49.798;10.228;2024-02-26T19:10:29;9.30;99.90
26757;DHT22;23848;49.798;10.228;2024-02-26T19:12:58;9.30;99.90
26757;DHT22;23848;49.798;10.228;2024-02-26T19:15:26;9.30;99.90
26757;DHT22;23848;49.798;10.228;2024-02-26T19:17:55;9.30;99.90
26757;DHT22;23848;49.798;10.228;2024-02-26T19:20:24;9.30;99.90
26757;DHT22;23848;49.798;10.228;2024-02-26T19:22:52;9.20;99.90
26757;DHT22;23848;49.798;10.228;2024-02-26T19:25:20;9.30;99.90
26757;DHT22;23848;49.798;10.228;2024-02-26T19:27:50;9.30;99.90
26757;DHT22;23848;49.798;10.228;2024-02-26T19:30:18;9.30;99.90
26757;DHT22;23848;49.798;10.228;2024-02-26T19:32:46;9.30;99.90
26757;DHT22;23848;49.798;10.228;2024-02-26T19:35:14;9.30;99.90
26757;DHT22;23848;49.798;10.228;2024-02-26T19:37:42;9.30;99.90
26757;DHT22;23848;49.798;10.228;2024-02-26T19:40:10;9.20;99.90
26757;DHT22;23848;49.798;10.228;2024-02-26T19:42:38;9.30;99.90
26757;DHT22;23848;49.798;10.228;2024-02-26T19:45:09;9.30;99.90
26757;DHT22;23848;49.798;10.228;2024-02-26T19:47:38;9.20;99.90
26757;DHT22;23848;49.798;10.228;2024-02-26T19:50:08;9.20;99.90
26757;DHT22;23848;49.798;10.228;2024-02-26T19:52:36;9.10;99.90
26757;DHT22;23848;49.798;10.228;2024-02-26T19:55:05;9.00;99.90
26757;DHT22;23848;49.798;10.228;2024-02-26T19:57:35;9.00;99.90
26757;DHT22;23848;49.798;10.228;2024-02-26T20:00:03;9.00;99.90
26757;DHT22;23848;49.798;10.228;2024-02-26T20:02:34;9.00;99.90
26757;DHT22;23848;49.798;10.228;2024-02-26T20:05:07;9.00;99.90
26757;DHT22;23848;49.798;10.228;2024-02-26T20:07:35;9.00;99.90
26757;DHT22;23848;49.798;10.228;2024-02-26T20:10:04;9.00;99.90
26757;DHT22;23848;49.798;10.228;2024-02-26T20:12:32;9.00;99.90
26757;DHT22;23848;49.798;10.228;2024-02-26T20:15:00;8.90;99.90
26757;DHT22;23848;49.798;10.228;2024-02-26T20:17:28;8.90;99.90
26757;DHT22;23848;49.798;10.228;2024-02-26T20:20:06;8.80;99.90
26757;DHT22;23848;49.798;10.228;2024-02-26T20:22:35;8.80;99.90
26757;DHT22;23848;49.798;10.228;2024-02-26T20:25:06;8.80;99.90
26757;DHT22;23848;49.798;10.228;2024-02-26T20:27:34;8.70;99.90
26757;DHT22;23848;49.798;10.228;2024-02-26T20:30:04;8.70;99.90
26757;DHT22;23848;49.798;10.228;2024-02-26T20:32:33;8.70;99.90
26757;DHT22;23848;49.798;10.228;2024-02-26T20:35:03;8.60;99.90
26757;DHT22;23848;49.798;10.228;2024-02-26T20:37:33;8.60;99.90
26757;DHT22;23848;49.798;10.228;2024-02-26T20:40:03;8.50;99.90
26757;DHT22;23848;49.798;10.228;2024-02-26T20:42:32;8.50;99.90
26757;DHT22;23848;49.798;10.228;2024-02-26T20:45:01;8.50;99.90
26757;DHT22;23848;49.798;10.228;2024-02-26T20:47:30;8.50;99.90
26757;DHT22;23848;49.798;10.228;2024-02-26T20:49:58;8.50;99.90
26757;DHT22;23848;49.798;10.228;2024-02-26T20:52:32;8.50;99.90
